createdAt,value
2023-12-30T17:42:53.458Z,73.27
2023-12-30T17:43:27.176Z,73.20
2023-12-30T17:44:04.738Z,72.13
2023-12-30T17:44:38.982Z,71.73
2023-12-30T17:45:16.099Z,72.33
2023-12-30T17:45:49.783Z,73.57
2023-12-30T17:46:23.420Z,71.67
2023-12-30T17:46:57.367Z,73.53
2023-12-30T17:47:33.866Z,74.73
2023-12-30T17:48:07.908Z,76.67
2023-12-30T17:48:41.660Z,76.50
2023-12-30T17:49:16.340Z,74.17
2023-12-30T17:49:50.646Z,74.40
2023-12-30T17:50:26.980Z,73.73
2023-12-30T17:51:00.596Z,75.73
2023-12-30T17:51:33.938Z,76.73
2023-12-30T17:52:07.586Z,78.83
2023-12-30T17:52:43.123Z,78.30
2023-12-30T17:53:16.815Z,78.83
2023-12-30T17:53:52.436Z,77.73
2023-12-30T17:54:30.387Z,77.13
2023-12-30T17:55:04.696Z,78.53
2023-12-30T17:55:38.983Z,78.30
2023-12-30T17:56:12.587Z,80.53
2023-12-30T17:56:46.418Z,80.03
2023-12-30T17:57:20.006Z,79.87
2023-12-30T17:57:53.352Z,79.60
2023-12-30T17:58:27.023Z,78.67
2023-12-30T17:59:00.514Z,79.77
2023-12-30T17:59:33.859Z,79.13
2023-12-30T18:00:08.152Z,79.73
2023-12-30T18:00:48.733Z,79.10
2023-12-30T18:01:22.632Z,82.07
2023-12-30T18:01:56.385Z,81.20
2023-12-30T18:02:29.786Z,79.10
2023-12-30T18:03:05.739Z,81.17
2023-12-30T18:03:39.568Z,79.97
2023-12-30T18:04:13.322Z,76.77
2023-12-30T18:04:50.376Z,78.63
2023-12-30T18:05:24.080Z,79.37
2023-12-30T18:05:57.652Z,80.53
2023-12-30T18:06:34.559Z,78.53
2023-12-30T18:07:07.919Z,78.97
2023-12-30T18:07:41.712Z,80.47
2023-12-30T18:08:21.326Z,78.70
2023-12-30T18:08:55.009Z,77.27
2023-12-30T18:09:29.897Z,78.10
2023-12-30T18:10:04.300Z,78.70
2023-12-30T18:10:39.479Z,77.20
2023-12-30T18:11:14.478Z,77.03
2023-12-30T18:11:47.777Z,78.20
2023-12-30T18:12:21.245Z,78.20
2023-12-30T18:12:54.546Z,77.90
2023-12-30T18:13:28.926Z,76.17
2023-12-30T18:14:02.853Z,78.03
2023-12-30T18:14:41.725Z,75.90
2023-12-30T18:15:16.160Z,78.27
2023-12-30T18:15:49.545Z,77.47
2023-12-30T18:16:24.774Z,77.27
2023-12-30T18:17:00.203Z,77.57
2023-12-30T18:17:33.569Z,77.30
2023-12-30T18:18:09.802Z,79.93
2023-12-30T18:18:44.661Z,79.73
2023-12-30T18:19:23.500Z,78.77
2023-12-30T18:19:57.268Z,76.30
2023-12-30T18:20:31.130Z,77.13
2023-12-30T18:21:05.993Z,76.57
2023-12-30T18:21:39.564Z,77.23
2023-12-30T18:22:13.336Z,77.37
2023-12-30T18:22:48.206Z,78.60
2023-12-30T18:23:21.908Z,78.40
2023-12-30T18:23:55.505Z,78.03
2023-12-30T18:24:31.708Z,79.53
2023-12-30T18:25:05.713Z,77.87
2023-12-30T18:25:39.241Z,75.93
2023-12-30T18:26:13.708Z,77.53
2023-12-30T18:26:51.559Z,80.30
2023-12-30T18:27:27.385Z,78.80
2023-12-30T18:28:00.878Z,78.43
2023-12-30T18:28:34.578Z,78.17
2023-12-30T18:29:10.564Z,77.73
2023-12-30T18:29:47.085Z,76.33
2023-12-30T18:30:21.604Z,79.13
2023-12-30T18:30:57.888Z,77.90
2023-12-30T18:31:32.949Z,77.10
2023-12-30T18:32:10.010Z,79.33
2023-12-30T18:32:47.311Z,77.97
2023-12-30T18:33:20.804Z,77.23
2023-12-30T18:33:54.511Z,77.23
2023-12-30T18:34:28.462Z,78.70
2023-12-30T18:35:04.459Z,81.40
2023-12-30T18:35:38.860Z,80.57
2023-12-30T18:36:13.029Z,82.00
2023-12-30T18:36:47.299Z,82.50
2023-12-30T18:37:21.297Z,82.80
2023-12-30T18:37:55.834Z,82.73
2023-12-30T18:38:30.498Z,82.00
2023-12-30T18:39:07.503Z,79.70
2023-12-30T18:39:42.001Z,80.10
2023-12-30T18:40:18.088Z,80.73
2023-12-30T18:40:51.533Z,80.53
2023-12-30T18:41:24.973Z,79.03
2023-12-30T18:41:59.029Z,78.30
2023-12-30T18:42:32.501Z,79.77
2023-12-30T18:43:08.955Z,77.87
2023-12-30T18:43:43.405Z,77.13
2023-12-30T18:44:19.443Z,79.27
2023-12-30T18:44:53.085Z,78.63
2023-12-30T18:45:28.507Z,79.00
2023-12-30T18:46:02.490Z,80.27
2023-12-30T18:46:39.248Z,79.77
2023-12-30T18:47:14.020Z,80.90
2023-12-30T18:47:47.564Z,80.13
2023-12-30T18:48:21.085Z,77.27
2023-12-30T18:48:55.915Z,78.77
2023-12-30T18:49:29.401Z,78.80
2023-12-30T18:50:03.098Z,78.53
2023-12-30T18:50:36.784Z,79.87
2023-12-30T18:51:10.367Z,79.00
2023-12-30T18:51:44.460Z,79.30
2023-12-30T18:52:19.057Z,77.27
2023-12-30T18:52:53.285Z,78.93
2023-12-30T18:53:26.702Z,78.03
2023-12-30T18:53:59.993Z,79.93
2023-12-30T18:54:33.229Z,77.93
2023-12-30T18:55:09.454Z,74.43
2023-12-30T18:55:47.417Z,75.47
2023-12-30T18:56:20.811Z,75.63
2023-12-30T18:56:58.474Z,75.13
2023-12-30T18:57:32.089Z,74.03
2023-12-30T18:58:07.955Z,74.40
2023-12-30T18:58:42.944Z,74.97
2023-12-30T18:59:19.655Z,77.50
2023-12-30T18:59:53.015Z,76.53
2023-12-30T19:00:28.127Z,76.73
2023-12-30T19:01:02.970Z,77.43
2023-12-30T19:01:46.110Z,78.23
2023-12-30T19:02:19.662Z,78.83
2023-12-30T19:02:53.887Z,77.07
2023-12-30T19:03:33.017Z,77.30
2023-12-30T19:04:08.190Z,77.60
2023-12-30T19:04:45.578Z,78.70
2023-12-30T19:05:19.342Z,76.93
2023-12-30T19:05:53.186Z,75.90
2023-12-30T19:06:27.237Z,76.03
2023-12-30T19:07:03.849Z,76.43
2023-12-30T19:07:37.487Z,77.00
2023-12-30T19:08:12.051Z,78.73
2023-12-30T19:08:46.691Z,79.57
2023-12-30T19:09:23.135Z,78.33
2023-12-30T19:09:56.667Z,78.13
2023-12-30T19:10:30.338Z,76.17
2023-12-30T19:11:05.053Z,77.37
2023-12-30T19:11:41.798Z,79.37
2023-12-30T19:12:15.827Z,78.13
2023-12-30T19:12:51.229Z,77.67
2023-12-30T19:13:30.498Z,76.37
2023-12-30T19:14:04.207Z,78.97
2023-12-30T19:14:37.821Z,78.43
2023-12-30T19:15:11.200Z,76.93
2023-12-30T19:15:46.168Z,78.57
2023-12-30T19:16:20.184Z,77.57
2023-12-30T19:16:53.929Z,77.63
2023-12-30T19:17:30.128Z,77.43
2023-12-30T19:18:06.127Z,77.87
2023-12-30T19:18:39.941Z,77.93
2023-12-30T19:19:19.036Z,76.63
2023-12-30T19:19:53.195Z,76.97
2023-12-30T19:20:26.711Z,76.20
2023-12-30T19:21:00.477Z,78.93
2023-12-30T19:21:35.255Z,77.87
2023-12-30T19:22:08.805Z,77.80
2023-12-30T19:22:42.463Z,78.00
2023-12-30T19:23:16.552Z,76.33
2023-12-30T19:23:52.869Z,77.13
2023-12-30T19:24:26.455Z,73.93
2023-12-30T19:24:59.959Z,73.53
2023-12-30T19:25:36.244Z,74.67
2023-12-30T19:26:09.802Z,75.00
2023-12-30T19:26:45.011Z,76.70
2023-12-30T19:27:18.498Z,76.83
2023-12-30T19:27:55.116Z,75.07
2023-12-30T19:28:28.504Z,75.20
2023-12-30T19:29:02.490Z,73.87
2023-12-30T19:29:36.456Z,74.80
2023-12-30T19:30:15.574Z,73.03
2023-12-30T19:30:49.671Z,74.23
2023-12-30T19:31:23.499Z,73.60
2023-12-30T19:31:57.291Z,74.13
2023-12-30T19:32:30.718Z,75.90
2023-12-30T19:33:06.345Z,75.17
2023-12-30T19:33:43.380Z,75.10
2023-12-30T19:34:17.312Z,75.57
2023-12-30T19:34:51.409Z,74.33
2023-12-30T19:35:30.659Z,74.23
2023-12-30T19:36:04.971Z,76.93
2023-12-30T19:36:39.533Z,78.30
2023-12-30T19:37:12.993Z,76.33
2023-12-30T19:37:46.612Z,75.20
2023-12-30T19:38:20.068Z,79.10
2023-12-30T19:38:56.221Z,78.10
2023-12-30T19:39:29.759Z,78.40
2023-12-30T19:40:04.980Z,79.73
2023-12-30T19:40:46.789Z,79.67
2023-12-30T19:41:21.734Z,79.57
2023-12-30T19:41:55.471Z,80.97
2023-12-30T19:42:29.244Z,80.20
2023-12-30T19:43:04.984Z,80.93
2023-12-30T19:43:38.935Z,79.37
2023-12-30T19:44:12.640Z,77.73
2023-12-30T19:44:46.685Z,74.90
2023-12-30T19:45:23.346Z,76.87
2023-12-30T19:45:57.008Z,76.27
2023-12-30T19:46:32.990Z,77.73
2023-12-30T19:47:06.743Z,77.03
2023-12-30T19:47:40.471Z,74.00
2023-12-30T19:48:17.625Z,77.03
2023-12-30T19:48:50.980Z,74.93
2023-12-30T19:49:24.924Z,75.80
2023-12-30T19:49:58.672Z,77.10
2023-12-30T19:50:32.143Z,77.27
2023-12-30T19:51:05.648Z,77.10
2023-12-30T19:51:39.073Z,76.30
2023-12-30T19:52:16.622Z,76.03
2023-12-30T19:52:51.118Z,76.00
2023-12-30T19:53:25.037Z,74.43
2023-12-30T19:53:58.426Z,73.80
2023-12-30T19:54:32.167Z,76.10
2023-12-30T19:55:07.054Z,75.13
2023-12-30T19:55:43.483Z,76.43
2023-12-30T19:56:16.963Z,74.90
2023-12-30T19:56:50.724Z,77.40
2023-12-30T19:57:24.048Z,76.03
2023-12-30T19:57:57.547Z,76.53
2023-12-30T19:58:32.354Z,76.97
2023-12-30T19:59:06.196Z,77.17
2023-12-30T19:59:40.833Z,75.87
2023-12-30T20:00:14.929Z,76.23
2023-12-30T20:00:48.805Z,74.93
2023-12-30T20:01:25.090Z,75.13
2023-12-30T20:01:58.836Z,73.93
2023-12-30T20:02:33.790Z,73.73
2023-12-30T20:03:09.641Z,76.07
2023-12-30T20:03:44.586Z,77.73
2023-12-30T20:04:18.266Z,76.50
2023-12-30T20:04:52.401Z,77.20
2023-12-30T20:05:25.999Z,75.43
2023-12-30T20:06:00.725Z,77.50
2023-12-30T20:06:34.657Z,77.17
2023-12-30T20:07:10.168Z,74.97
2023-12-30T20:07:44.763Z,77.67
2023-12-30T20:08:21.281Z,76.80
2023-12-30T20:08:58.015Z,76.30
2023-12-30T20:09:31.705Z,75.93
2023-12-30T20:10:06.080Z,77.87
2023-12-30T20:10:39.503Z,78.70
2023-12-30T20:11:13.074Z,80.20
2023-12-30T20:11:46.536Z,82.80
2023-12-30T20:12:20.102Z,83.50
2023-12-30T20:12:54.607Z,82.07
2023-12-30T20:13:28.271Z,82.30
2023-12-30T20:14:02.116Z,81.43
2023-12-30T20:14:38.142Z,83.30
2023-12-30T20:15:11.584Z,80.77
2023-12-30T20:15:45.119Z,80.93
2023-12-30T20:16:18.580Z,79.60
2023-12-30T20:16:52.142Z,79.83
2023-12-30T20:17:25.914Z,79.07
2023-12-30T20:17:59.756Z,78.77
2023-12-30T20:18:37.073Z,79.60
2023-12-30T20:19:11.968Z,77.30
2023-12-30T20:19:46.153Z,77.33
2023-12-30T20:20:19.582Z,76.83
2023-12-30T20:20:52.961Z,77.73
2023-12-30T20:21:26.949Z,79.30
2023-12-30T20:22:01.743Z,76.63
2023-12-30T20:22:35.424Z,76.60
2023-12-30T20:23:08.773Z,76.13
2023-12-30T20:23:49.864Z,77.23
2023-12-30T20:24:23.569Z,77.77
2023-12-30T20:24:56.993Z,77.20
2023-12-30T20:25:33.621Z,76.53
2023-12-30T20:26:10.604Z,77.70
2023-12-30T20:26:44.925Z,78.13
2023-12-30T20:27:18.264Z,79.30
2023-12-30T20:27:51.700Z,78.00
2023-12-30T20:28:25.504Z,77.27
2023-12-30T20:28:59.262Z,79.57
2023-12-30T20:29:35.258Z,80.17
2023-12-30T20:30:09.944Z,77.97
2023-12-30T20:30:46.688Z,79.93
2023-12-30T20:31:21.221Z,80.33
2023-12-30T20:31:57.198Z,79.97
2023-12-30T20:32:32.611Z,79.33
2023-12-30T20:33:06.426Z,83.43
2023-12-30T20:33:40.170Z,83.73
2023-12-30T20:34:13.909Z,80.30
2023-12-30T20:34:50.873Z,80.70
2023-12-30T20:35:24.589Z,81.90
2023-12-30T20:35:58.283Z,83.30
2023-12-30T20:36:33.044Z,82.67
2023-12-30T20:37:06.622Z,78.67
2023-12-30T20:37:40.050Z,81.30
2023-12-30T20:38:16.588Z,81.57
2023-12-30T20:38:51.289Z,81.97
2023-12-30T20:39:24.647Z,81.13
2023-12-30T20:40:00.047Z,80.63
2023-12-30T20:40:37.238Z,79.40
2023-12-30T20:41:11.549Z,78.20
2023-12-30T20:41:45.034Z,79.70
2023-12-30T20:42:19.028Z,77.67
2023-12-30T20:42:55.730Z,77.83
2023-12-30T20:43:29.386Z,77.63
2023-12-30T20:44:05.424Z,77.20
2023-12-30T20:44:39.695Z,77.73
2023-12-30T20:45:15.294Z,78.53
2023-12-30T20:45:48.957Z,76.93
2023-12-30T20:46:22.630Z,77.17
2023-12-30T20:46:55.989Z,76.87
2023-12-30T20:47:29.687Z,78.13
2023-12-30T20:48:03.532Z,79.63
2023-12-30T20:48:41.458Z,78.50
2023-12-30T20:49:15.125Z,76.53
2023-12-30T20:49:48.999Z,76.27
2023-12-30T20:50:23.208Z,76.97
2023-12-30T20:50:56.670Z,77.47
2023-12-30T20:51:30.388Z,74.80
2023-12-30T20:52:04.208Z,75.40
2023-12-30T20:52:39.036Z,76.73
2023-12-30T20:53:12.504Z,77.17
2023-12-30T20:53:49.187Z,75.67
2023-12-30T20:54:22.908Z,73.97
2023-12-30T20:54:56.244Z,76.60
2023-12-30T20:55:30.455Z,75.27
2023-12-30T20:56:03.944Z,75.03
2023-12-30T20:56:37.271Z,75.03
2023-12-30T20:57:13.514Z,78.13
2023-12-30T20:57:46.802Z,74.90
2023-12-30T20:58:20.209Z,73.77
2023-12-30T20:58:53.895Z,73.50
2023-12-30T20:59:27.497Z,72.67
2023-12-30T21:00:01.163Z,74.37
2023-12-30T21:00:34.901Z,75.00
2023-12-30T21:01:09.172Z,72.43
2023-12-30T21:01:44.513Z,73.87
2023-12-30T21:02:18.126Z,72.73
2023-12-30T21:02:51.953Z,74.13
2023-12-30T21:03:27.724Z,74.20
2023-12-30T21:04:01.513Z,73.20
2023-12-30T21:04:36.341Z,73.87
2023-12-30T21:05:12.909Z,74.10
2023-12-30T21:05:47.590Z,73.40
2023-12-30T21:06:25.064Z,71.97
2023-12-30T21:06:59.870Z,74.27
2023-12-30T21:07:33.508Z,77.07
2023-12-30T21:08:12.481Z,76.63
2023-12-30T21:08:47.970Z,74.27
2023-12-30T21:09:23.072Z,75.50
2023-12-30T21:09:56.404Z,74.30
2023-12-30T21:10:30.579Z,70.80
2023-12-30T21:11:07.279Z,73.70
2023-12-30T21:11:46.923Z,72.87
2023-12-30T21:12:20.747Z,71.37
2023-12-30T21:12:54.539Z,71.53
2023-12-30T21:13:28.214Z,72.40
2023-12-30T21:14:01.541Z,71.70
2023-12-30T21:14:35.016Z,71.10
2023-12-30T21:15:10.655Z,71.80
2023-12-30T21:15:44.720Z,71.67
2023-12-30T21:16:19.524Z,71.67
2023-12-30T21:16:56.209Z,69.50
2023-12-30T21:17:29.641Z,68.37
2023-12-30T21:18:07.833Z,70.10
2023-12-30T21:18:44.889Z,70.37
2023-12-30T21:19:18.818Z,69.93
2023-12-30T21:19:52.518Z,68.90
2023-12-30T21:20:26.065Z,68.63
2023-12-30T21:21:03.890Z,69.67
2023-12-30T21:21:44.193Z,67.23
2023-12-30T21:22:17.766Z,65.87
2023-12-30T21:22:56.573Z,66.60
2023-12-30T21:23:32.938Z,66.37
2023-12-30T21:24:14.829Z,67.03
2023-12-30T21:24:48.186Z,66.80
2023-12-30T21:25:27.380Z,65.63
2023-12-30T21:26:04.692Z,66.17
2023-12-30T21:26:38.723Z,65.20
2023-12-30T21:27:14.960Z,64.50
2023-12-30T21:27:53.961Z,65.20
2023-12-30T21:28:31.795Z,65.13
2023-12-30T21:29:10.563Z,66.13
2023-12-30T21:29:52.412Z,64.53
2023-12-30T21:30:30.052Z,66.27
2023-12-30T21:31:08.076Z,67.33
2023-12-30T21:31:45.424Z,67.40
2023-12-30T21:32:30.748Z,67.27
2023-12-30T21:33:05.306Z,66.17
2023-12-30T21:33:45.427Z,65.60
2023-12-30T21:34:19.385Z,64.33
2023-12-30T21:34:59.624Z,63.03
2023-12-30T21:35:33.704Z,61.97
2023-12-30T21:36:08.017Z,62.60
2023-12-30T21:36:46.037Z,62.93
2023-12-30T21:37:19.700Z,63.80
2023-12-30T21:37:55.976Z,62.93
2023-12-30T21:38:32.714Z,61.47
2023-12-30T21:39:07.712Z,62.83
2023-12-30T21:39:42.643Z,63.97
2023-12-30T21:40:18.251Z,64.07
2023-12-30T21:40:51.633Z,65.30
2023-12-30T21:41:25.313Z,67.33
2023-12-30T21:42:01.695Z,70.03
2023-12-30T21:42:37.554Z,68.73
2023-12-30T21:43:12.918Z,70.80
2023-12-30T21:43:52.344Z,70.73
2023-12-30T21:44:34.220Z,69.47
2023-12-30T21:45:13.940Z,66.00
2023-12-30T21:45:49.499Z,67.60
2023-12-30T21:46:24.885Z,67.47
2023-12-30T21:47:06.856Z,65.13
2023-12-30T21:47:40.461Z,66.07
2023-12-30T21:48:14.589Z,63.13
2023-12-30T21:48:51.041Z,61.80
2023-12-30T21:49:25.876Z,63.67
2023-12-30T21:50:05.670Z,63.17
2023-12-30T21:50:39.756Z,62.07
2023-12-30T21:51:14.698Z,62.43
2023-12-30T21:51:51.466Z,61.07
2023-12-30T21:52:27.605Z,59.67
2023-12-30T21:53:01.416Z,61.03
2023-12-30T21:53:37.896Z,62.63
2023-12-30T21:54:17.691Z,61.77
2023-12-30T21:54:51.140Z,62.10
2023-12-30T21:55:27.726Z,62.23
2023-12-30T21:56:01.188Z,64.43
2023-12-30T21:56:37.775Z,63.50
2023-12-30T21:57:14.073Z,61.87
2023-12-30T21:57:47.724Z,61.10
2023-12-30T21:58:21.528Z,58.50
2023-12-30T21:58:58.984Z,58.77
2023-12-30T21:59:35.348Z,60.20
2023-12-30T22:00:10.428Z,60.80
2023-12-30T22:00:45.971Z,60.13
2023-12-30T22:01:19.452Z,60.00
2023-12-30T22:01:52.905Z,60.37
2023-12-30T22:02:27.840Z,59.43
2023-12-30T22:03:01.721Z,58.27
2023-12-30T22:03:35.736Z,58.47
2023-12-30T22:04:09.386Z,58.60
2023-12-30T22:04:44.756Z,60.00
2023-12-30T22:05:30.660Z,57.43
2023-12-30T22:06:05.489Z,58.50
2023-12-30T22:06:39.452Z,58.67
2023-12-30T22:07:15.633Z,60.17
2023-12-30T22:07:49.394Z,60.63
2023-12-30T22:08:27.649Z,60.67
2023-12-30T22:09:01.256Z,58.27
2023-12-30T22:09:37.828Z,58.33
2023-12-30T22:10:23.603Z,57.83
2023-12-30T22:11:00.277Z,57.30
2023-12-30T22:11:36.207Z,59.17
2023-12-30T22:12:09.516Z,56.53
2023-12-30T22:12:44.334Z,58.17
2023-12-30T22:13:17.881Z,59.43
2023-12-30T22:13:51.273Z,59.30
2023-12-30T22:14:29.171Z,60.20
2023-12-30T22:15:05.536Z,60.40
2023-12-30T22:15:40.572Z,63.23
2023-12-30T22:16:14.024Z,63.57
2023-12-30T22:16:49.030Z,62.87
2023-12-30T22:17:25.532Z,63.27
2023-12-30T22:17:59.385Z,65.07
2023-12-30T22:18:33.037Z,63.70
2023-12-30T22:19:07.977Z,63.40
2023-12-30T22:19:42.669Z,59.23
2023-12-30T22:20:18.568Z,58.30
2023-12-30T22:20:53.956Z,58.80
2023-12-30T22:21:34.056Z,59.50
2023-12-30T22:22:11.600Z,60.53
2023-12-30T22:22:48.420Z,58.43
2023-12-30T22:23:22.105Z,60.80
2023-12-30T22:24:01.157Z,61.30
2023-12-30T22:24:37.437Z,62.90
2023-12-30T22:25:13.324Z,62.33
2023-12-30T22:25:50.166Z,63.30
2023-12-30T22:26:23.452Z,62.47
2023-12-30T22:27:00.051Z,62.70
2023-12-30T22:27:37.048Z,60.83
2023-12-30T22:28:11.411Z,64.63
2023-12-30T22:28:45.500Z,70.20
2023-12-30T22:29:26.347Z,69.70
2023-12-30T22:30:03.169Z,69.93
2023-12-30T22:30:36.965Z,65.80
2023-12-30T22:31:16.147Z,64.73
2023-12-30T22:31:49.670Z,65.57
2023-12-30T22:32:25.591Z,63.27
2023-12-30T22:33:02.110Z,63.40
2023-12-30T22:33:36.005Z,65.90
2023-12-30T22:34:10.830Z,64.67
2023-12-30T22:34:45.813Z,62.77
2023-12-30T22:35:19.742Z,60.97
2023-12-30T22:35:53.779Z,63.37
2023-12-30T22:36:32.104Z,64.27
2023-12-30T22:37:05.708Z,63.80
2023-12-30T22:37:42.152Z,60.37
2023-12-30T22:38:19.512Z,62.93
2023-12-30T22:38:53.039Z,61.33
2023-12-30T22:39:27.505Z,60.43
2023-12-30T22:40:02.530Z,61.40
2023-12-30T22:40:38.723Z,60.23
2023-12-30T22:41:15.457Z,61.97
2023-12-30T22:41:49.171Z,61.50
2023-12-30T22:42:22.593Z,60.30
2023-12-30T22:42:56.927Z,60.33
2023-12-30T22:43:32.651Z,61.80
2023-12-30T22:44:06.286Z,62.10
2023-12-30T22:44:42.187Z,63.97
2023-12-30T22:45:18.085Z,62.03
2023-12-30T22:45:54.232Z,62.03
2023-12-30T22:46:30.360Z,60.90
2023-12-30T22:47:06.929Z,60.90
2023-12-30T22:47:44.209Z,62.97
2023-12-30T22:48:20.171Z,62.93
2023-12-30T22:48:56.479Z,61.53
2023-12-30T22:49:37.597Z,63.47
2023-12-30T22:50:13.419Z,62.20
2023-12-30T22:50:46.952Z,63.03
2023-12-30T22:51:23.540Z,62.53
2023-12-30T22:52:00.097Z,60.13
2023-12-30T22:52:37.799Z,61.27
2023-12-30T22:53:11.756Z,60.77
2023-12-30T22:53:47.514Z,61.27
2023-12-30T22:54:28.368Z,60.63
2023-12-30T22:55:03.490Z,59.67
2023-12-30T22:55:36.962Z,60.67
2023-12-30T22:56:13.482Z,58.37
2023-12-30T22:56:46.988Z,60.63
2023-12-30T22:57:20.718Z,60.23
2023-12-30T22:57:54.328Z,61.37
2023-12-30T22:58:27.872Z,60.97
2023-12-30T22:59:01.620Z,62.07
2023-12-30T22:59:35.471Z,62.67
2023-12-30T23:00:11.897Z,64.10
2023-12-30T23:00:46.763Z,65.90
2023-12-30T23:01:23.251Z,65.43
2023-12-30T23:02:00.037Z,64.23
2023-12-30T23:02:39.624Z,63.13
2023-12-30T23:03:13.471Z,66.60
2023-12-30T23:03:49.858Z,67.33
2023-12-30T23:04:24.811Z,65.03
2023-12-30T23:05:00.977Z,67.67
2023-12-30T23:05:34.408Z,68.77
2023-12-30T23:06:09.681Z,70.23
2023-12-30T23:06:44.521Z,69.27
2023-12-30T23:07:23.996Z,67.93
